Bowman Field


Codes: KLOU/LOU
Name: Bowman Field
City: Louisville
Country: United States
Elevation: 546 ft.
Website:
Wikipedia:

Photos at Bowman Field


   Photos courtesy of SpottingLog. You can add your own sightings and photos by signing up for a free trial today.



No photos found.

Weather at Bowman Field


Time (UTC)DescriptionTempratureWindCloud coverageVisibilityPressureHumidity
13-Jun-2024 03:00Few Clouds24°C2 mph, S21%10000m1015hPa45%
13-Jun-2024 06:00Few Clouds21°C2 mph, S21%10000m1015hPa61%
13-Jun-2024 09:00Scattered Clouds17°C2 mph, SE36%10000m1015hPa76%
13-Jun-2024 12:00Few Clouds18°C2 mph, SE18%10000m1016hPa67%
13-Jun-2024 15:00Clear Sky26°C4 mph, SW0%10000m1016hPa41%
13-Jun-2024 18:00Clear Sky31°C4 mph, SW1%10000m1014hPa29%
13-Jun-2024 21:00Clear Sky31°C7 mph, W1%10000m1013hPa31%
14-Jun-2024 00:00Clear Sky27°C4 mph, W0%10000m1014hPa49%
14-Jun-2024 03:00Clear Sky22°C2 mph, W1%10000m1014hPa68%
14-Jun-2024 06:00Few Clouds20°C2 mph, SW18%10000m1014hPa76%
14-Jun-2024 09:00Overcast Clouds20°C4 mph, W100%10000m1015hPa76%
14-Jun-2024 12:00Overcast Clouds21°C4 mph, W100%10000m1015hPa76%
14-Jun-2024 15:00Broken Clouds27°C7 mph, NW83%10000m1015hPa59%
14-Jun-2024 18:00Light Rain28°C7 mph, NW55%10000m1014hPa65%
14-Jun-2024 21:00Light Rain27°C7 mph, N64%10000m1014hPa67%
15-Jun-2024 00:00Light Rain26°C4 mph, NE45%10000m1014hPa70%
15-Jun-2024 03:00Clear Sky21°C4 mph, NE0%10000m1016hPa72%
15-Jun-2024 06:00Clear Sky19°C4 mph, NE4%10000m1016hPa73%
15-Jun-2024 09:00Overcast Clouds17°C4 mph, NE90%10000m1017hPa79%
15-Jun-2024 12:00Broken Clouds18°C7 mph, E54%10000m1019hPa78%
15-Jun-2024 15:00Overcast Clouds24°C7 mph, E98%10000m1019hPa56%
15-Jun-2024 18:00Overcast Clouds28°C7 mph, NE89%10000m1018hPa40%
15-Jun-2024 21:00Broken Clouds28°C7 mph, E71%10000m1015hPa38%
16-Jun-2024 00:00Broken Clouds25°C7 mph, E60%10000m1015hPa54%
16-Jun-2024 03:00Broken Clouds20°C4 mph, E75%10000m1016hPa69%
16-Jun-2024 06:00Broken Clouds19°C4 mph, E56%10000m1016hPa73%
16-Jun-2024 09:00Broken Clouds18°C2 mph, SE64%10000m1015hPa73%
16-Jun-2024 12:00Broken Clouds20°C2 mph, SE56%10000m1016hPa65%
16-Jun-2024 15:00Scattered Clouds29°C4 mph, S34%10000m1016hPa45%
16-Jun-2024 18:00Few Clouds34°C7 mph, SW22%10000m1014hPa41%
16-Jun-2024 21:00Clear Sky35°C9 mph, SW7%10000m1014hPa41%
17-Jun-2024 00:00Clear Sky31°C7 mph, S8%10000m1013hPa53%
17-Jun-2024 03:00Scattered Clouds27°C4 mph, SW33%10000m1016hPa73%
17-Jun-2024 06:00Scattered Clouds25°C7 mph, S37%10000m1016hPa80%
17-Jun-2024 09:00Broken Clouds24°C4 mph, S67%10000m1017hPa84%
17-Jun-2024 12:00Light Rain23°C4 mph, S75%10000m1018hPa91%
17-Jun-2024 15:00Light Rain30°C9 mph, S41%10000m1018hPa59%
17-Jun-2024 18:00Scattered Clouds34°C9 mph, SW45%10000m1017hPa42%
17-Jun-2024 21:00Overcast Clouds34°C9 mph, S100%10000m1016hPa46%
18-Jun-2024 00:00Light Rain31°C7 mph, SW65%10000m1016hPa60%